sensor_id;sensor_type;location;lat;lon;timestamp;temperature;humidity
16249;DHT22;8232;51.678;6.610;2022-10-16T00:01:25;13.40;99.90
16249;DHT22;8232;51.678;6.610;2022-10-16T00:03:53;13.40;99.90
16249;DHT22;8232;51.678;6.610;2022-10-16T00:06:20;13.30;99.90
16249;DHT22;8232;51.678;6.610;2022-10-16T00:08:48;13.30;99.90
16249;DHT22;8232;51.678;6.610;2022-10-16T00:11:19;13.30;99.90
16249;DHT22;8232;51.678;6.610;2022-10-16T00:13:47;13.30;99.90
16249;DHT22;8232;51.678;6.610;2022-10-16T00:16:16;13.30;99.90
16249;DHT22;8232;51.678;6.610;2022-10-16T00:18:43;13.20;99.90
16249;DHT22;8232;51.678;6.610;2022-10-16T00:21:12;13.30;99.90
16249;DHT22;8232;51.678;6.610;2022-10-16T00:23:39;13.30;99.90
16249;DHT22;8232;51.678;6.610;2022-10-16T00:26:08;13.30;99.90
16249;DHT22;8232;51.678;6.610;2022-10-16T00:28:37;13.20;99.90
16249;DHT22;8232;51.678;6.610;2022-10-16T00:31:05;13.20;99.90
16249;DHT22;8232;51.678;6.610;2022-10-16T00:33:32;13.20;99.90
16249;DHT22;8232;51.678;6.610;2022-10-16T00:36:00;13.20;99.90
16249;DHT22;8232;51.678;6.610;2022-10-16T00:38:27;13.10;99.90
16249;DHT22;8232;51.678;6.610;2022-10-16T00:40:53;13.10;99.90
16249;DHT22;8232;51.678;6.610;2022-10-16T00:43:38;13.10;99.90
16249;DHT22;8232;51.678;6.610;2022-10-16T00:46:10;13.00;99.90
16249;DHT22;8232;51.678;6.610;2022-10-16T00:48:38;13.00;99.90
16249;DHT22;8232;51.678;6.610;2022-10-16T00:51:06;13.10;99.90
16249;DHT22;8232;51.678;6.610;2022-10-16T00:53:34;13.20;99.90
16249;DHT22;8232;51.678;6.610;2022-10-16T00:56:02;13.10;99.90
16249;DHT22;8232;51.678;6.610;2022-10-16T00:58:29;13.10;99.90
16249;DHT22;8232;51.678;6.610;2022-10-16T01:00:57;13.10;99.90
16249;DHT22;8232;51.678;6.610;2022-10-16T01:03:28;13.20;99.90
16249;DHT22;8232;51.678;6.610;2022-10-16T01:06:13;13.20;99.90
16249;DHT22;8232;51.678;6.610;2022-10-16T01:08:53;13.10;99.90
16249;DHT22;8232;51.678;6.610;2022-10-16T01:11:25;13.10;99.90
16249;DHT22;8232;51.678;6.610;2022-10-16T01:13:55;13.20;99.90
16249;DHT22;8232;51.678;6.610;2022-10-16T01:16:30;13.10;99.90
16249;DHT22;8232;51.678;6.610;2022-10-16T01:19:03;13.10;99.90
16249;DHT22;8232;51.678;6.610;2022-10-16T01:21:36;13.10;99.90
16249;DHT22;8232;51.678;6.610;2022-10-16T01:24:11;13.00;99.90
16249;DHT22;8232;51.678;6.610;2022-10-16T01:27:05;13.10;99.90
16249;DHT22;8232;51.678;6.610;2022-10-16T01:29:36;13.10;99.90
16249;DHT22;8232;51.678;6.610;2022-10-16T01:32:11;13.10;99.90
16249;DHT22;8232;51.678;6.610;2022-10-16T01:34:47;13.10;99.90
16249;DHT22;8232;51.678;6.610;2022-10-16T01:37:17;13.20;99.90
16249;DHT22;8232;51.678;6.610;2022-10-16T01:39:47;13.30;99.90
16249;DHT22;8232;51.678;6.610;2022-10-16T01:42:20;13.40;99.90
16249;DHT22;8232;51.678;6.610;2022-10-16T01:44:49;13.40;99.90
16249;DHT22;8232;51.678;6.610;2022-10-16T01:47:19;13.40;99.90
16249;DHT22;8232;51.678;6.610;2022-10-16T01:49:48;13.40;99.90
16249;DHT22;8232;51.678;6.610;2022-10-16T01:52:19;13.40;99.90
16249;DHT22;8232;51.678;6.610;2022-10-16T01:54:49;13.40;99.90
16249;DHT22;8232;51.678;6.610;2022-10-16T01:57:21;13.50;99.90
16249;DHT22;8232;51.678;6.610;2022-10-16T01:59:51;13.50;99.90
16249;DHT22;8232;51.678;6.610;2022-10-16T02:02:20;13.50;99.90
16249;DHT22;8232;51.678;6.610;2022-10-16T02:04:55;13.40;99.90
16249;DHT22;8232;51.678;6.610;2022-10-16T02:07:24;13.40;99.90
16249;DHT22;8232;51.678;6.610;2022-10-16T02:09:51;13.40;99.90
16249;DHT22;8232;51.678;6.610;2022-10-16T02:12:24;13.30;99.90
16249;DHT22;8232;51.678;6.610;2022-10-16T02:14:52;13.20;99.90
16249;DHT22;8232;51.678;6.610;2022-10-16T02:17:20;13.10;99.90
16249;DHT22;8232;51.678;6.610;2022-10-16T02:19:50;13.10;99.90
16249;DHT22;8232;51.678;6.610;2022-10-16T02:22:24;13.10;99.90
16249;DHT22;8232;51.678;6.610;2022-10-16T02:24:56;13.10;99.90
16249;DHT22;8232;51.678;6.610;2022-10-16T02:27:29;13.00;99.90
16249;DHT22;8232;51.678;6.610;2022-10-16T02:30:03;13.00;99.90
16249;DHT22;8232;51.678;6.610;2022-10-16T02:32:34;13.00;99.90
16249;DHT22;8232;51.678;6.610;2022-10-16T02:35:04;13.00;99.90
16249;DHT22;8232;51.678;6.610;2022-10-16T02:37:32;13.00;99.90
16249;DHT22;8232;51.678;6.610;2022-10-16T02:39:59;13.10;99.90
16249;DHT22;8232;51.678;6.610;2022-10-16T02:42:33;13.00;99.90
16249;DHT22;8232;51.678;6.610;2022-10-16T02:45:00;13.20;99.90
16249;DHT22;8232;51.678;6.610;2022-10-16T02:47:27;13.20;99.90
16249;DHT22;8232;51.678;6.610;2022-10-16T02:49:53;13.10;99.90
16249;DHT22;8232;51.678;6.610;2022-10-16T02:52:20;13.10;99.90
16249;DHT22;8232;51.678;6.610;2022-10-16T02:54:47;13.20;99.90
16249;DHT22;8232;51.678;6.610;2022-10-16T02:57:14;13.30;99.90
16249;DHT22;8232;51.678;6.610;2022-10-16T02:59:42;13.30;99.90
16249;DHT22;8232;51.678;6.610;2022-10-16T03:02:09;13.20;99.90
16249;DHT22;8232;51.678;6.610;2022-10-16T03:04:36;13.10;99.90
16249;DHT22;8232;51.678;6.610;2022-10-16T03:07:03;13.20;99.90
16249;DHT22;8232;51.678;6.610;2022-10-16T03:09:30;13.10;99.90
16249;DHT22;8232;51.678;6.610;2022-10-16T03:11:57;13.10;99.90
16249;DHT22;8232;51.678;6.610;2022-10-16T03:14:24;13.10;99.90
16249;DHT22;8232;51.678;6.610;2022-10-16T03:16:52;13.20;99.90
16249;DHT22;8232;51.678;6.610;2022-10-16T03:19:19;13.20;99.90
16249;DHT22;8232;51.678;6.610;2022-10-16T03:21:46;13.30;99.90
16249;DHT22;8232;51.678;6.610;2022-10-16T03:24:12;13.30;99.90
16249;DHT22;8232;51.678;6.610;2022-10-16T03:26:39;13.30;99.90
16249;DHT22;8232;51.678;6.610;2022-10-16T03:29:06;13.30;99.90
16249;DHT22;8232;51.678;6.610;2022-10-16T03:31:33;13.30;99.90
16249;DHT22;8232;51.678;6.610;2022-10-16T03:34:01;13.30;99.90
16249;DHT22;8232;51.678;6.610;2022-10-16T03:36:28;13.30;99.90
16249;DHT22;8232;51.678;6.610;2022-10-16T03:38:55;13.30;99.90
16249;DHT22;8232;51.678;6.610;2022-10-16T03:41:22;13.30;99.90
16249;DHT22;8232;51.678;6.610;2022-10-16T03:43:48;13.30;99.90
16249;DHT22;8232;51.678;6.610;2022-10-16T03:46:15;13.20;99.90
16249;DHT22;8232;51.678;6.610;2022-10-16T03:48:42;13.20;99.90
16249;DHT22;8232;51.678;6.610;2022-10-16T03:51:10;13.30;99.90
16249;DHT22;8232;51.678;6.610;2022-10-16T03:53:37;13.30;99.90
16249;DHT22;8232;51.678;6.610;2022-10-16T03:56:04;13.20;99.90
16249;DHT22;8232;51.678;6.610;2022-10-16T03:58:31;13.30;99.90
16249;DHT22;8232;51.678;6.610;2022-10-16T04:00:57;13.30;99.90
16249;DHT22;8232;51.678;6.610;2022-10-16T04:03:24;13.20;99.90
16249;DHT22;8232;51.678;6.610;2022-10-16T04:05:51;13.20;99.90
16249;DHT22;8232;51.678;6.610;2022-10-16T04:08:19;13.30;99.90
16249;DHT22;8232;51.678;6.610;2022-10-16T04:10:46;13.20;99.90
16249;DHT22;8232;51.678;6.610;2022-10-16T04:13:14;13.30;99.90
16249;DHT22;8232;51.678;6.610;2022-10-16T04:15:41;13.30;99.90
16249;DHT22;8232;51.678;6.610;2022-10-16T04:18:08;13.30;99.90
16249;DHT22;8232;51.678;6.610;2022-10-16T04:20:34;13.30;99.90
16249;DHT22;8232;51.678;6.610;2022-10-16T04:23:01;13.30;99.90
16249;DHT22;8232;51.678;6.610;2022-10-16T04:25:30;13.20;99.90
16249;DHT22;8232;51.678;6.610;2022-10-16T04:27:57;13.20;99.90
16249;DHT22;8232;51.678;6.610;2022-10-16T04:30:24;13.20;99.90
16249;DHT22;8232;51.678;6.610;2022-10-16T04:32:52;13.20;99.90
16249;DHT22;8232;51.678;6.610;2022-10-16T04:35:20;13.20;99.90
16249;DHT22;8232;51.678;6.610;2022-10-16T04:37:47;13.20;99.90
16249;DHT22;8232;51.678;6.610;2022-10-16T04:40:14;13.20;99.90
16249;DHT22;8232;51.678;6.610;2022-10-16T04:42:42;13.20;99.90
16249;DHT22;8232;51.678;6.610;2022-10-16T04:45:09;13.30;99.90
16249;DHT22;8232;51.678;6.610;2022-10-16T04:47:36;13.20;99.90
16249;DHT22;8232;51.678;6.610;2022-10-16T04:50:03;13.20;99.90
16249;DHT22;8232;51.678;6.610;2022-10-16T04:52:30;13.10;99.90
16249;DHT22;8232;51.678;6.610;2022-10-16T04:54:57;13.20;99.90
16249;DHT22;8232;51.678;6.610;2022-10-16T04:57:27;13.20;99.90
16249;DHT22;8232;51.678;6.610;2022-10-16T04:59:55;13.20;99.90
16249;DHT22;8232;51.678;6.610;2022-10-16T05:02:22;13.30;99.90
16249;DHT22;8232;51.678;6.610;2022-10-16T05:04:49;13.20;99.90
16249;DHT22;8232;51.678;6.610;2022-10-16T05:07:16;13.20;99.90
16249;DHT22;8232;51.678;6.610;2022-10-16T05:09:42;13.20;99.90
16249;DHT22;8232;51.678;6.610;2022-10-16T05:12:09;13.30;99.90
16249;DHT22;8232;51.678;6.610;2022-10-16T05:14:36;13.20;99.90
16249;DHT22;8232;51.678;6.610;2022-10-16T05:17:04;13.20;99.90
16249;DHT22;8232;51.678;6.610;2022-10-16T05:19:31;13.20;99.90
16249;DHT22;8232;51.678;6.610;2022-10-16T05:21:58;13.20;99.90
16249;DHT22;8232;51.678;6.610;2022-10-16T05:24:24;13.20;99.90
16249;DHT22;8232;51.678;6.610;2022-10-16T05:26:52;13.10;99.90
16249;DHT22;8232;51.678;6.610;2022-10-16T05:29:19;13.10;99.90
16249;DHT22;8232;51.678;6.610;2022-10-16T05:31:45;13.10;99.90
16249;DHT22;8232;51.678;6.610;2022-10-16T05:34:14;13.20;99.90
16249;DHT22;8232;51.678;6.610;2022-10-16T05:36:40;13.20;99.90
16249;DHT22;8232;51.678;6.610;2022-10-16T05:39:07;13.10;99.90
16249;DHT22;8232;51.678;6.610;2022-10-16T05:41:34;13.10;99.90
16249;DHT22;8232;51.678;6.610;2022-10-16T05:44:04;13.10;99.90
16249;DHT22;8232;51.678;6.610;2022-10-16T05:46:31;13.10;99.90
16249;DHT22;8232;51.678;6.610;2022-10-16T05:48:57;13.00;99.90
16249;DHT22;8232;51.678;6.610;2022-10-16T05:51:26;13.10;99.90
16249;DHT22;8232;51.678;6.610;2022-10-16T05:53:52;13.10;99.90
16249;DHT22;8232;51.678;6.610;2022-10-16T05:56:19;13.00;99.90
16249;DHT22;8232;51.678;6.610;2022-10-16T05:58:46;13.00;99.90
16249;DHT22;8232;51.678;6.610;2022-10-16T06:01:14;13.00;99.90
16249;DHT22;8232;51.678;6.610;2022-10-16T06:03:42;13.00;99.90
16249;DHT22;8232;51.678;6.610;2022-10-16T06:06:10;13.00;99.90
16249;DHT22;8232;51.678;6.610;2022-10-16T06:08:38;13.00;99.90
16249;DHT22;8232;51.678;6.610;2022-10-16T06:11:07;12.90;99.90
16249;DHT22;8232;51.678;6.610;2022-10-16T06:13:35;12.90;99.90
16249;DHT22;8232;51.678;6.610;2022-10-16T06:16:02;13.00;99.90
16249;DHT22;8232;51.678;6.610;2022-10-16T06:18:30;13.00;99.90
16249;DHT22;8232;51.678;6.610;2022-10-16T06:20:57;13.00;99.90
16249;DHT22;8232;51.678;6.610;2022-10-16T06:23:24;12.90;99.90
16249;DHT22;8232;51.678;6.610;2022-10-16T06:25:53;12.90;99.90
16249;DHT22;8232;51.678;6.610;2022-10-16T06:28:20;13.10;99.90
16249;DHT22;8232;51.678;6.610;2022-10-16T06:30:46;13.00;99.90
16249;DHT22;8232;51.678;6.610;2022-10-16T06:33:13;13.00;99.90
16249;DHT22;8232;51.678;6.610;2022-10-16T06:35:40;12.90;99.90
16249;DHT22;8232;51.678;6.610;2022-10-16T06:38:07;12.80;99.90
16249;DHT22;8232;51.678;6.610;2022-10-16T06:40:33;12.80;99.90
16249;DHT22;8232;51.678;6.610;2022-10-16T06:43:02;12.80;99.90
16249;DHT22;8232;51.678;6.610;2022-10-16T06:45:28;12.70;99.90
16249;DHT22;8232;51.678;6.610;2022-10-16T06:47:55;12.70;99.90
16249;DHT22;8232;51.678;6.610;2022-10-16T06:50:22;12.70;99.90
16249;DHT22;8232;51.678;6.610;2022-10-16T06:52:49;12.70;99.90
16249;DHT22;8232;51.678;6.610;2022-10-16T06:55:16;12.70;99.90
16249;DHT22;8232;51.678;6.610;2022-10-16T06:57:43;12.70;99.90
16249;DHT22;8232;51.678;6.610;2022-10-16T07:00:12;12.60;99.90
16249;DHT22;8232;51.678;6.610;2022-10-16T07:02:38;12.60;99.90
16249;DHT22;8232;51.678;6.610;2022-10-16T07:05:06;12.60;99.90
16249;DHT22;8232;51.678;6.610;2022-10-16T07:07:33;12.60;99.90
16249;DHT22;8232;51.678;6.610;2022-10-16T07:09:59;12.60;99.90
16249;DHT22;8232;51.678;6.610;2022-10-16T07:12:26;12.60;99.90
16249;DHT22;8232;51.678;6.610;2022-10-16T07:14:53;12.70;99.90
16249;DHT22;8232;51.678;6.610;2022-10-16T07:17:22;12.70;99.90
16249;DHT22;8232;51.678;6.610;2022-10-16T07:19:49;12.80;99.90
16249;DHT22;8232;51.678;6.610;2022-10-16T07:22:18;12.90;99.90
16249;DHT22;8232;51.678;6.610;2022-10-16T07:24:45;13.00;99.90
16249;DHT22;8232;51.678;6.610;2022-10-16T07:27:12;13.40;99.90
16249;DHT22;8232;51.678;6.610;2022-10-16T07:29:38;13.30;99.90
16249;DHT22;8232;51.678;6.610;2022-10-16T07:32:05;13.40;99.90
16249;DHT22;8232;51.678;6.610;2022-10-16T07:34:34;13.60;99.90
16249;DHT22;8232;51.678;6.610;2022-10-16T07:37:00;13.60;99.90
16249;DHT22;8232;51.678;6.610;2022-10-16T07:39:27;13.70;99.90
16249;DHT22;8232;51.678;6.610;2022-10-16T07:41:54;13.70;99.90
16249;DHT22;8232;51.678;6.610;2022-10-16T07:44:21;13.80;99.90
16249;DHT22;8232;51.678;6.610;2022-10-16T07:46:48;13.90;99.90
16249;DHT22;8232;51.678;6.610;2022-10-16T07:49:15;14.10;93.80
16249;DHT22;8232;51.678;6.610;2022-10-16T07:51:43;14.10;90.20
16249;DHT22;8232;51.678;6.610;2022-10-16T07:54:10;14.20;88.90
16249;DHT22;8232;51.678;6.610;2022-10-16T07:56:36;14.20;88.50
16249;DHT22;8232;51.678;6.610;2022-10-16T07:59:03;14.40;81.20
16249;DHT22;8232;51.678;6.610;2022-10-16T08:01:30;14.50;78.80
16249;DHT22;8232;51.678;6.610;2022-10-16T08:03:57;14.50;67.80
16249;DHT22;8232;51.678;6.610;2022-10-16T08:06:23;14.70;56.70
16249;DHT22;8232;51.678;6.610;2022-10-16T08:08:52;14.80;50.80
16249;DHT22;8232;51.678;6.610;2022-10-16T08:11:19;15.20;36.90
16249;DHT22;8232;51.678;6.610;2022-10-16T08:13:45;15.40;24.10
16249;DHT22;8232;51.678;6.610;2022-10-16T08:16:12;15.50;14.70
16249;DHT22;8232;51.678;6.610;2022-10-16T08:18:40;16.20;7.60
16249;DHT22;8232;51.678;6.610;2022-10-16T08:21:12;17.70;1.00
16249;DHT22;8232;51.678;6.610;2022-10-16T08:23:39;18.60;1.00
16249;DHT22;8232;51.678;6.610;2022-10-16T08:26:08;18.90;1.00
16249;DHT22;8232;51.678;6.610;2022-10-16T08:28:35;19.20;1.00
16249;DHT22;8232;51.678;6.610;2022-10-16T08:31:07;19.80;1.00
16249;DHT22;8232;51.678;6.610;2022-10-16T08:33:34;19.70;1.00
16249;DHT22;8232;51.678;6.610;2022-10-16T08:36:02;20.30;1.00
16249;DHT22;8232;51.678;6.610;2022-10-16T08:38:29;20.30;1.00
16249;DHT22;8232;51.678;6.610;2022-10-16T08:41:02;20.10;1.00
16249;DHT22;8232;51.678;6.610;2022-10-16T08:44:07;20.10;1.00
16249;DHT22;8232;51.678;6.610;2022-10-16T08:46:42;20.60;1.00
16249;DHT22;8232;51.678;6.610;2022-10-16T08:49:12;19.20;1.00
16249;DHT22;8232;51.678;6.610;2022-10-16T08:51:40;20.20;1.00
16249;DHT22;8232;51.678;6.610;2022-10-16T08:54:26;20.50;1.00
16249;DHT22;8232;51.678;6.610;2022-10-16T08:56:55;21.40;1.00
16249;DHT22;8232;51.678;6.610;2022-10-16T08:59:23;20.60;1.00
16249;DHT22;8232;51.678;6.610;2022-10-16T09:01:51;20.30;1.00
16249;DHT22;8232;51.678;6.610;2022-10-16T09:07:21;21.00;1.00
16249;DHT22;8232;51.678;6.610;2022-10-16T09:09:58;21.00;1.00
16249;DHT22;8232;51.678;6.610;2022-10-16T09:12:33;22.00;1.00
16249;DHT22;8232;51.678;6.610;2022-10-16T09:15:13;21.20;1.00
16249;DHT22;8232;51.678;6.610;2022-10-16T09:17:48;21.40;1.00
16249;DHT22;8232;51.678;6.610;2022-10-16T09:20:23;22.80;1.00
16249;DHT22;8232;51.678;6.610;2022-10-16T09:22:58;21.50;1.00
16249;DHT22;8232;51.678;6.610;2022-10-16T09:25:26;21.50;1.00
16249;DHT22;8232;51.678;6.610;2022-10-16T09:27:53;22.00;1.00
16249;DHT22;8232;51.678;6.610;2022-10-16T09:30:22;22.00;1.00
16249;DHT22;8232;51.678;6.610;2022-10-16T09:32:51;22.20;1.00
16249;DHT22;8232;51.678;6.610;2022-10-16T09:35:21;22.50;1.00
16249;DHT22;8232;51.678;6.610;2022-10-16T09:37:51;22.40;1.00
16249;DHT22;8232;51.678;6.610;2022-10-16T09:40:26;22.40;1.00
16249;DHT22;8232;51.678;6.610;2022-10-16T09:43:01;21.70;1.00
16249;DHT22;8232;51.678;6.610;2022-10-16T09:45:30;22.00;1.00
16249;DHT22;8232;51.678;6.610;2022-10-16T09:47:57;22.60;1.00
16249;DHT22;8232;51.678;6.610;2022-10-16T09:50:25;24.20;1.00
16249;DHT22;8232;51.678;6.610;2022-10-16T09:53:04;22.80;1.00
16249;DHT22;8232;51.678;6.610;2022-10-16T09:55:31;23.00;1.00
16249;DHT22;8232;51.678;6.610;2022-10-16T09:57:58;24.40;1.00
16249;DHT22;8232;51.678;6.610;2022-10-16T10:00:25;23.70;1.00
16249;DHT22;8232;51.678;6.610;2022-10-16T10:02:53;23.70;1.00
16249;DHT22;8232;51.678;6.610;2022-10-16T10:05:23;25.60;1.00
16249;DHT22;8232;51.678;6.610;2022-10-16T10:07:56;23.10;1.00
16249;DHT22;8232;51.678;6.610;2022-10-16T10:10:25;24.50;1.00
16249;DHT22;8232;51.678;6.610;2022-10-16T10:12:52;24.70;1.00
16249;DHT22;8232;51.678;6.610;2022-10-16T10:15:20;24.80;1.00
16249;DHT22;8232;51.678;6.610;2022-10-16T10:17:50;23.80;1.00
16249;DHT22;8232;51.678;6.610;2022-10-16T10:20:27;24.80;1.00
16249;DHT22;8232;51.678;6.610;2022-10-16T10:22:55;22.70;1.00
16249;DHT22;8232;51.678;6.610;2022-10-16T10:25:35;21.30;1.00
16249;DHT22;8232;51.678;6.610;2022-10-16T10:28:21;20.20;1.00
16249;DHT22;8232;51.678;6.610;2022-10-16T10:30:56;23.70;1.00
16249;DHT22;8232;51.678;6.610;2022-10-16T10:33:28;21.60;1.00
16249;DHT22;8232;51.678;6.610;2022-10-16T10:36:05;20.60;1.00
16249;DHT22;8232;51.678;6.610;2022-10-16T10:38:39;19.20;1.00
16249;DHT22;8232;51.678;6.610;2022-10-16T10:41:24;19.90;1.00
16249;DHT22;8232;51.678;6.610;2022-10-16T10:44:01;20.10;1.00
16249;DHT22;8232;51.678;6.610;2022-10-16T10:46:34;22.10;1.00
16249;DHT22;8232;51.678;6.610;2022-10-16T10:49:23;23.40;1.00
16249;DHT22;8232;51.678;6.610;2022-10-16T10:52:02;22.50;1.00
16249;DHT22;8232;51.678;6.610;2022-10-16T10:54:36;23.30;1.00
16249;DHT22;8232;51.678;6.610;2022-10-16T10:57:10;25.80;1.00
16249;DHT22;8232;51.678;6.610;2022-10-16T11:00:02;25.10;1.00
16249;DHT22;8232;51.678;6.610;2022-10-16T11:02:35;25.10;1.00
16249;DHT22;8232;51.678;6.610;2022-10-16T11:05:25;26.50;1.00
16249;DHT22;8232;51.678;6.610;2022-10-16T11:07:58;25.60;1.00
16249;DHT22;8232;51.678;6.610;2022-10-16T11:10:29;26.60;1.00
16249;DHT22;8232;51.678;6.610;2022-10-16T11:13:04;26.40;1.00
16249;DHT22;8232;51.678;6.610;2022-10-16T11:15:37;23.80;1.00
16249;DHT22;8232;51.678;6.610;2022-10-16T11:18:07;23.80;1.00
16249;DHT22;8232;51.678;6.610;2022-10-16T11:20:40;25.10;1.00
16249;DHT22;8232;51.678;6.610;2022-10-16T11:23:14;25.50;1.00
16249;DHT22;8232;51.678;6.610;2022-10-16T11:25:43;26.50;1.00
16249;DHT22;8232;51.678;6.610;2022-10-16T11:28:11;26.50;1.00
16249;DHT22;8232;51.678;6.610;2022-10-16T11:30:44;25.10;1.00
16249;DHT22;8232;51.678;6.610;2022-10-16T11:33:25;25.00;1.00
16249;DHT22;8232;51.678;6.610;2022-10-16T11:36:01;25.70;1.00
16249;DHT22;8232;51.678;6.610;2022-10-16T11:38:33;25.90;1.00
16249;DHT22;8232;51.678;6.610;2022-10-16T11:41:15;24.70;1.00
16249;DHT22;8232;51.678;6.610;2022-10-16T11:43:50;25.90;1.00
16249;DHT22;8232;51.678;6.610;2022-10-16T11:46:21;24.60;1.00
16249;DHT22;8232;51.678;6.610;2022-10-16T11:48:53;26.20;1.00
16249;DHT22;8232;51.678;6.610;2022-10-16T11:51:25;26.20;1.00
16249;DHT22;8232;51.678;6.610;2022-10-16T11:54:00;26.20;1.00
16249;DHT22;8232;51.678;6.610;2022-10-16T11:56:30;26.30;1.00
16249;DHT22;8232;51.678;6.610;2022-10-16T11:59:01;24.90;1.00
16249;DHT22;8232;51.678;6.610;2022-10-16T12:01:33;24.30;1.00
16249;DHT22;8232;51.678;6.610;2022-10-16T12:04:14;23.80;1.00
16249;DHT22;8232;51.678;6.610;2022-10-16T12:06:44;21.40;1.00
16249;DHT22;8232;51.678;6.610;2022-10-16T12:09:21;20.80;1.00
16249;DHT22;8232;51.678;6.610;2022-10-16T12:11:49;19.80;1.00
16249;DHT22;8232;51.678;6.610;2022-10-16T12:14:22;19.20;1.00
16249;DHT22;8232;51.678;6.610;2022-10-16T12:17:00;19.30;1.00
16249;DHT22;8232;51.678;6.610;2022-10-16T12:19:29;19.50;1.00
16249;DHT22;8232;51.678;6.610;2022-10-16T12:21:58;19.20;1.00
16249;DHT22;8232;51.678;6.610;2022-10-16T12:24:34;19.10;1.00
16249;DHT22;8232;51.678;6.610;2022-10-16T12:27:03;19.30;1.00
16249;DHT22;8232;51.678;6.610;2022-10-16T12:29:34;18.80;1.00
16249;DHT22;8232;51.678;6.610;2022-10-16T12:32:04;18.70;1.00
16249;DHT22;8232;51.678;6.610;2022-10-16T12:34:37;18.80;1.00
16249;DHT22;8232;51.678;6.610;2022-10-16T12:37:11;19.00;1.00
16249;DHT22;8232;51.678;6.610;2022-10-16T12:39:41;19.00;1.00
16249;DHT22;8232;51.678;6.610;2022-10-16T12:42:21;19.30;1.00
16249;DHT22;8232;51.678;6.610;2022-10-16T12:44:49;19.10;1.00
16249;DHT22;8232;51.678;6.610;2022-10-16T12:47:22;18.90;1.00
16249;DHT22;8232;51.678;6.610;2022-10-16T12:49:51;19.10;1.00
16249;DHT22;8232;51.678;6.610;2022-10-16T12:52:27;18.90;1.00
16249;DHT22;8232;51.678;6.610;2022-10-16T12:54:57;18.60;1.00
16249;DHT22;8232;51.678;6.610;2022-10-16T12:57:43;18.70;1.00
16249;DHT22;8232;51.678;6.610;2022-10-16T13:00:19;18.80;1.00
16249;DHT22;8232;51.678;6.610;2022-10-16T13:03:24;18.70;1.00
16249;DHT22;8232;51.678;6.610;2022-10-16T13:06:07;18.60;1.00
16249;DHT22;8232;51.678;6.610;2022-10-16T13:08:59;18.50;1.00
16249;DHT22;8232;51.678;6.610;2022-10-16T13:11:41;18.30;1.00
16249;DHT22;8232;51.678;6.610;2022-10-16T13:14:35;18.30;1.00
16249;DHT22;8232;51.678;6.610;2022-10-16T13:17:11;18.40;1.00
16249;DHT22;8232;51.678;6.610;2022-10-16T13:19:45;18.20;1.00
16249;DHT22;8232;51.678;6.610;2022-10-16T13:22:20;18.40;1.00
16249;DHT22;8232;51.678;6.610;2022-10-16T13:24:58;18.50;1.00
16249;DHT22;8232;51.678;6.610;2022-10-16T13:27:35;18.30;1.00
16249;DHT22;8232;51.678;6.610;2022-10-16T13:30:12;18.40;1.00
16249;DHT22;8232;51.678;6.610;2022-10-16T13:32:40;18.30;1.00
16249;DHT22;8232;51.678;6.610;2022-10-16T13:35:28;18.30;1.00
16249;DHT22;8232;51.678;6.610;2022-10-16T13:38:11;18.30;1.00
16249;DHT22;8232;51.678;6.610;2022-10-16T13:40:49;18.30;1.00
16249;DHT22;8232;51.678;6.610;2022-10-16T13:43:18;18.40;1.00
16249;DHT22;8232;51.678;6.610;2022-10-16T13:45:53;18.30;1.00
16249;DHT22;8232;51.678;6.610;2022-10-16T13:48:20;18.30;1.00
16249;DHT22;8232;51.678;6.610;2022-10-16T13:51:02;18.10;1.00
16249;DHT22;8232;51.678;6.610;2022-10-16T13:53:31;18.30;1.00
16249;DHT22;8232;51.678;6.610;2022-10-16T13:55:59;18.40;1.00
16249;DHT22;8232;51.678;6.610;2022-10-16T13:58:28;18.40;1.00
16249;DHT22;8232;51.678;6.610;2022-10-16T14:00:57;18.50;1.00
16249;DHT22;8232;51.678;6.610;2022-10-16T14:03:25;18.80;1.00
16249;DHT22;8232;51.678;6.610;2022-10-16T14:05:53;18.60;1.00
16249;DHT22;8232;51.678;6.610;2022-10-16T14:08:21;18.60;1.00
16249;DHT22;8232;51.678;6.610;2022-10-16T14:10:50;18.90;1.00
16249;DHT22;8232;51.678;6.610;2022-10-16T14:13:19;18.90;1.00
16249;DHT22;8232;51.678;6.610;2022-10-16T14:15:49;18.60;1.00
16249;DHT22;8232;51.678;6.610;2022-10-16T14:18:20;18.50;1.00
16249;DHT22;8232;51.678;6.610;2022-10-16T14:20:48;18.30;1.00
16249;DHT22;8232;51.678;6.610;2022-10-16T14:23:21;18.20;1.00
16249;DHT22;8232;51.678;6.610;2022-10-16T14:25:48;18.30;1.00
16249;DHT22;8232;51.678;6.610;2022-10-16T14:28:17;18.20;1.00
16249;DHT22;8232;51.678;6.610;2022-10-16T14:30:53;18.10;1.00
16249;DHT22;8232;51.678;6.610;2022-10-16T14:33:24;18.20;1.00
16249;DHT22;8232;51.678;6.610;2022-10-16T14:36:01;18.50;1.00
16249;DHT22;8232;51.678;6.610;2022-10-16T14:38:29;18.70;1.00
16249;DHT22;8232;51.678;6.610;2022-10-16T14:40:58;18.70;1.00
16249;DHT22;8232;51.678;6.610;2022-10-16T14:43:31;18.60;1.00
16249;DHT22;8232;51.678;6.610;2022-10-16T14:46:01;18.40;1.00
16249;DHT22;8232;51.678;6.610;2022-10-16T14:48:29;18.30;1.00
16249;DHT22;8232;51.678;6.610;2022-10-16T14:50:56;18.20;1.00
16249;DHT22;8232;51.678;6.610;2022-10-16T14:53:22;18.10;1.00
16249;DHT22;8232;51.678;6.610;2022-10-16T14:55:49;18.10;1.00
16249;DHT22;8232;51.678;6.610;2022-10-16T14:58:18;18.10;1.00
16249;DHT22;8232;51.678;6.610;2022-10-16T15:00:45;18.00;1.00
16249;DHT22;8232;51.678;6.610;2022-10-16T15:03:13;18.10;1.00
16249;DHT22;8232;51.678;6.610;2022-10-16T15:05:40;18.00;1.00
16249;DHT22;8232;51.678;6.610;2022-10-16T15:08:07;18.10;1.00
16249;DHT22;8232;51.678;6.610;2022-10-16T15:10:38;18.00;1.00
16249;DHT22;8232;51.678;6.610;2022-10-16T15:13:06;18.00;1.00
16249;DHT22;8232;51.678;6.610;2022-10-16T15:15:35;17.90;1.00
16249;DHT22;8232;51.678;6.610;2022-10-16T15:18:02;17.70;1.00
16249;DHT22;8232;51.678;6.610;2022-10-16T15:20:32;17.80;1.00
16249;DHT22;8232;51.678;6.610;2022-10-16T15:23:00;17.90;1.00
16249;DHT22;8232;51.678;6.610;2022-10-16T15:25:34;18.00;1.00
16249;DHT22;8232;51.678;6.610;2022-10-16T15:28:03;18.00;1.00
16249;DHT22;8232;51.678;6.610;2022-10-16T15:30:30;18.10;1.00
16249;DHT22;8232;51.678;6.610;2022-10-16T15:32:58;18.00;1.00
16249;DHT22;8232;51.678;6.610;2022-10-16T15:35:25;17.90;1.00
16249;DHT22;8232;51.678;6.610;2022-10-16T15:37:53;17.90;1.00
16249;DHT22;8232;51.678;6.610;2022-10-16T15:40:20;17.80;1.00
16249;DHT22;8232;51.678;6.610;2022-10-16T15:42:48;17.70;1.00
16249;DHT22;8232;51.678;6.610;2022-10-16T15:45:16;17.60;1.00
16249;DHT22;8232;51.678;6.610;2022-10-16T15:47:43;17.50;1.00
16249;DHT22;8232;51.678;6.610;2022-10-16T15:50:11;17.40;1.00
16249;DHT22;8232;51.678;6.610;2022-10-16T15:52:38;17.40;1.00
16249;DHT22;8232;51.678;6.610;2022-10-16T15:55:08;17.50;1.00
16249;DHT22;8232;51.678;6.610;2022-10-16T15:57:35;17.50;1.00
16249;DHT22;8232;51.678;6.610;2022-10-16T16:00:05;17.30;1.00
16249;DHT22;8232;51.678;6.610;2022-10-16T16:02:33;17.30;1.00
16249;DHT22;8232;51.678;6.610;2022-10-16T16:04:59;17.20;1.00
16249;DHT22;8232;51.678;6.610;2022-10-16T16:07:27;17.20;1.00
16249;DHT22;8232;51.678;6.610;2022-10-16T16:09:54;17.00;1.00
16249;DHT22;8232;51.678;6.610;2022-10-16T16:12:22;16.80;1.00
16249;DHT22;8232;51.678;6.610;2022-10-16T16:14:49;16.70;1.00
16249;DHT22;8232;51.678;6.610;2022-10-16T16:17:16;16.60;1.00